sensor_id;sensor_type;location;lat;lon;timestamp;P1;durP1;ratioP1;P2;durP2;ratioP2
13083;SDS011;6608;48.790;9.198;2024-01-30T00:02:16;116.87;;;57.13;;
13083;SDS011;6608;48.790;9.198;2024-01-30T00:04:42;122.70;;;57.93;;
13083;SDS011;6608;48.790;9.198;2024-01-30T00:07:10;119.17;;;57.13;;
13083;SDS011;6608;48.790;9.198;2024-01-30T00:09:38;116.67;;;55.60;;
13083;SDS011;6608;48.790;9.198;2024-01-30T00:12:05;118.90;;;56.20;;
13083;SDS011;6608;48.790;9.198;2024-01-30T00:14:32;112.27;;;55.40;;
13083;SDS011;6608;48.790;9.198;2024-01-30T00:16:58;114.80;;;56.40;;
13083;SDS011;6608;48.790;9.198;2024-01-30T00:19:24;118.20;;;56.73;;
13083;SDS011;6608;48.790;9.198;2024-01-30T00:21:51;116.10;;;57.10;;
13083;SDS011;6608;48.790;9.198;2024-01-30T00:24:19;112.73;;;56.03;;
13083;SDS011;6608;48.790;9.198;2024-01-30T00:26:45;120.77;;;58.40;;
13083;SDS011;6608;48.790;9.198;2024-01-30T00:29:12;118.23;;;56.83;;
13083;SDS011;6608;48.790;9.198;2024-01-30T00:31:44;118.47;;;57.30;;
13083;SDS011;6608;48.790;9.198;2024-01-30T00:34:10;113.63;;;56.00;;
13083;SDS011;6608;48.790;9.198;2024-01-30T00:36:37;115.77;;;56.60;;
13083;SDS011;6608;48.790;9.198;2024-01-30T00:39:03;114.77;;;56.03;;
13083;SDS011;6608;48.790;9.198;2024-01-30T00:41:33;110.77;;;55.17;;
13083;SDS011;6608;48.790;9.198;2024-01-30T00:44:00;112.20;;;55.77;;
13083;SDS011;6608;48.790;9.198;2024-01-30T00:46:26;114.83;;;55.57;;
13083;SDS011;6608;48.790;9.198;2024-01-30T00:48:52;114.70;;;56.53;;
13083;SDS011;6608;48.790;9.198;2024-01-30T00:51:19;111.57;;;55.60;;
13083;SDS011;6608;48.790;9.198;2024-01-30T00:53:45;111.80;;;55.70;;
13083;SDS011;6608;48.790;9.198;2024-01-30T00:56:12;113.40;;;55.33;;
13083;SDS011;6608;48.790;9.198;2024-01-30T00:58:40;111.93;;;55.43;;
13083;SDS011;6608;48.790;9.198;2024-01-30T01:01:06;114.33;;;56.13;;
13083;SDS011;6608;48.790;9.198;2024-01-30T01:03:33;114.07;;;55.83;;
13083;SDS011;6608;48.790;9.198;2024-01-30T01:05:59;115.00;;;56.07;;
13083;SDS011;6608;48.790;9.198;2024-01-30T01:08:26;110.47;;;55.27;;
13083;SDS011;6608;48.790;9.198;2024-01-30T01:10:53;112.40;;;55.93;;
13083;SDS011;6608;48.790;9.198;2024-01-30T01:13:19;113.47;;;55.80;;
13083;SDS011;6608;48.790;9.198;2024-01-30T01:15:47;112.30;;;55.13;;
13083;SDS011;6608;48.790;9.198;2024-01-30T01:18:13;114.40;;;55.50;;
13083;SDS011;6608;48.790;9.198;2024-01-30T01:20:40;110.03;;;54.43;;
13083;SDS011;6608;48.790;9.198;2024-01-30T01:23:06;108.80;;;54.60;;
13083;SDS011;6608;48.790;9.198;2024-01-30T01:25:32;113.37;;;54.43;;
13083;SDS011;6608;48.790;9.198;2024-01-30T01:27:59;111.07;;;55.27;;
13083;SDS011;6608;48.790;9.198;2024-01-30T01:30:26;113.93;;;55.13;;
13083;SDS011;6608;48.790;9.198;2024-01-30T01:32:55;110.77;;;55.37;;
13083;SDS011;6608;48.790;9.198;2024-01-30T01:35:25;112.47;;;54.90;;
13083;SDS011;6608;48.790;9.198;2024-01-30T01:37:51;109.27;;;55.17;;
13083;SDS011;6608;48.790;9.198;2024-01-30T01:40:20;115.07;;;55.63;;
13083;SDS011;6608;48.790;9.198;2024-01-30T01:42:47;111.33;;;55.37;;
13083;SDS011;6608;48.790;9.198;2024-01-30T01:45:13;116.77;;;55.80;;
13083;SDS011;6608;48.790;9.198;2024-01-30T01:47:40;106.90;;;54.07;;
13083;SDS011;6608;48.790;9.198;2024-01-30T01:50:08;111.30;;;55.17;;
13083;SDS011;6608;48.790;9.198;2024-01-30T01:52:35;112.80;;;55.20;;
13083;SDS011;6608;48.790;9.198;2024-01-30T01:55:02;109.53;;;55.37;;
13083;SDS011;6608;48.790;9.198;2024-01-30T01:57:28;110.47;;;55.37;;
13083;SDS011;6608;48.790;9.198;2024-01-30T01:59:55;113.40;;;55.97;;
13083;SDS011;6608;48.790;9.198;2024-01-30T02:02:22;115.23;;;57.43;;
13083;SDS011;6608;48.790;9.198;2024-01-30T02:04:49;113.40;;;56.20;;
13083;SDS011;6608;48.790;9.198;2024-01-30T02:07:17;120.13;;;57.87;;
13083;SDS011;6608;48.790;9.198;2024-01-30T02:09:43;110.00;;;54.97;;
13083;SDS011;6608;48.790;9.198;2024-01-30T02:12:10;116.43;;;57.03;;
13083;SDS011;6608;48.790;9.198;2024-01-30T02:14:43;110.90;;;55.37;;
13083;SDS011;6608;48.790;9.198;2024-01-30T02:17:10;115.77;;;57.40;;
13083;SDS011;6608;48.790;9.198;2024-01-30T02:19:36;112.00;;;55.07;;
13083;SDS011;6608;48.790;9.198;2024-01-30T02:22:04;112.90;;;55.23;;
13083;SDS011;6608;48.790;9.198;2024-01-30T02:24:31;108.40;;;54.73;;
13083;SDS011;6608;48.790;9.198;2024-01-30T02:26:58;106.70;;;54.87;;
13083;SDS011;6608;48.790;9.198;2024-01-30T02:29:24;109.70;;;55.20;;
13083;SDS011;6608;48.790;9.198;2024-01-30T02:31:50;108.80;;;54.70;;
13083;SDS011;6608;48.790;9.198;2024-01-30T02:34:17;109.03;;;55.03;;
13083;SDS011;6608;48.790;9.198;2024-01-30T02:36:44;111.90;;;55.90;;
13083;SDS011;6608;48.790;9.198;2024-01-30T02:39:12;110.37;;;54.90;;
13083;SDS011;6608;48.790;9.198;2024-01-30T02:41:38;110.23;;;54.93;;
13083;SDS011;6608;48.790;9.198;2024-01-30T02:44:05;108.87;;;55.10;;
13083;SDS011;6608;48.790;9.198;2024-01-30T02:46:31;107.87;;;54.73;;
13083;SDS011;6608;48.790;9.198;2024-01-30T02:48:58;114.47;;;55.40;;
13083;SDS011;6608;48.790;9.198;2024-01-30T02:51:24;107.80;;;54.73;;
13083;SDS011;6608;48.790;9.198;2024-01-30T02:53:50;114.33;;;55.83;;
13083;SDS011;6608;48.790;9.198;2024-01-30T02:56:18;111.10;;;54.43;;
13083;SDS011;6608;48.790;9.198;2024-01-30T02:58:45;112.13;;;55.33;;
13083;SDS011;6608;48.790;9.198;2024-01-30T03:01:11;111.27;;;54.50;;
13083;SDS011;6608;48.790;9.198;2024-01-30T03:03:37;108.97;;;54.77;;
13083;SDS011;6608;48.790;9.198;2024-01-30T03:06:05;110.47;;;55.10;;
13083;SDS011;6608;48.790;9.198;2024-01-30T03:08:32;107.53;;;54.70;;
13083;SDS011;6608;48.790;9.198;2024-01-30T03:10:59;107.87;;;54.93;;
13083;SDS011;6608;48.790;9.198;2024-01-30T03:13:28;106.70;;;54.40;;
13083;SDS011;6608;48.790;9.198;2024-01-30T03:15:54;118.27;;;57.10;;
13083;SDS011;6608;48.790;9.198;2024-01-30T03:18:20;108.83;;;54.90;;
13083;SDS011;6608;48.790;9.198;2024-01-30T03:20:47;106.30;;;53.43;;
13083;SDS011;6608;48.790;9.198;2024-01-30T03:23:13;106.07;;;53.60;;
13083;SDS011;6608;48.790;9.198;2024-01-30T03:25:40;109.97;;;54.60;;
13083;SDS011;6608;48.790;9.198;2024-01-30T03:28:06;107.47;;;55.17;;
13083;SDS011;6608;48.790;9.198;2024-01-30T03:30:35;109.63;;;55.20;;
13083;SDS011;6608;48.790;9.198;2024-01-30T03:33:02;108.50;;;55.43;;
13083;SDS011;6608;48.790;9.198;2024-01-30T03:35:28;108.47;;;55.10;;
13083;SDS011;6608;48.790;9.198;2024-01-30T03:37:54;108.10;;;54.87;;
13083;SDS011;6608;48.790;9.198;2024-01-30T03:40:21;108.90;;;54.73;;
13083;SDS011;6608;48.790;9.198;2024-01-30T03:42:47;113.40;;;56.53;;
13083;SDS011;6608;48.790;9.198;2024-01-30T03:45:14;106.77;;;54.53;;
13083;SDS011;6608;48.790;9.198;2024-01-30T03:47:44;116.60;;;56.77;;
13083;SDS011;6608;48.790;9.198;2024-01-30T03:50:10;107.37;;;54.27;;
13083;SDS011;6608;48.790;9.198;2024-01-30T03:52:37;115.07;;;56.63;;
13083;SDS011;6608;48.790;9.198;2024-01-30T03:55:03;109.93;;;54.47;;
13083;SDS011;6608;48.790;9.198;2024-01-30T03:57:30;110.00;;;55.27;;
13083;SDS011;6608;48.790;9.198;2024-01-30T03:59:56;107.20;;;54.90;;
13083;SDS011;6608;48.790;9.198;2024-01-30T04:02:23;109.43;;;55.87;;
13083;SDS011;6608;48.790;9.198;2024-01-30T04:04:51;106.80;;;54.30;;
13083;SDS011;6608;48.790;9.198;2024-01-30T04:07:17;105.77;;;54.80;;
13083;SDS011;6608;48.790;9.198;2024-01-30T04:09:44;113.27;;;56.73;;
13083;SDS011;6608;48.790;9.198;2024-01-30T04:12:10;106.00;;;54.47;;
13083;SDS011;6608;48.790;9.198;2024-01-30T04:14:37;105.70;;;55.03;;
13083;SDS011;6608;48.790;9.198;2024-01-30T04:17:04;107.40;;;54.57;;
13083;SDS011;6608;48.790;9.198;2024-01-30T04:19:30;109.77;;;55.23;;
13083;SDS011;6608;48.790;9.198;2024-01-30T04:21:58;119.77;;;55.57;;
13083;SDS011;6608;48.790;9.198;2024-01-30T04:24:25;111.10;;;55.50;;
13083;SDS011;6608;48.790;9.198;2024-01-30T04:26:51;111.37;;;55.83;;
13083;SDS011;6608;48.790;9.198;2024-01-30T04:29:17;108.20;;;55.50;;
13083;SDS011;6608;48.790;9.198;2024-01-30T04:31:44;108.90;;;55.10;;
13083;SDS011;6608;48.790;9.198;2024-01-30T04:34:11;112.00;;;55.27;;
13083;SDS011;6608;48.790;9.198;2024-01-30T04:36:37;111.70;;;56.17;;
13083;SDS011;6608;48.790;9.198;2024-01-30T04:39:05;108.43;;;54.80;;
13083;SDS011;6608;48.790;9.198;2024-01-30T04:41:31;109.57;;;55.23;;
13083;SDS011;6608;48.790;9.198;2024-01-30T04:43:59;106.77;;;55.20;;
13083;SDS011;6608;48.790;9.198;2024-01-30T04:46:25;106.27;;;55.33;;
13083;SDS011;6608;48.790;9.198;2024-01-30T04:48:51;107.37;;;55.30;;
13083;SDS011;6608;48.790;9.198;2024-01-30T04:51:18;110.07;;;56.30;;
13083;SDS011;6608;48.790;9.198;2024-01-30T04:53:44;109.60;;;55.63;;
13083;SDS011;6608;48.790;9.198;2024-01-30T04:56:12;109.63;;;54.93;;
13083;SDS011;6608;48.790;9.198;2024-01-30T04:58:38;109.20;;;54.93;;
13083;SDS011;6608;48.790;9.198;2024-01-30T05:01:05;106.67;;;54.13;;
13083;SDS011;6608;48.790;9.198;2024-01-30T05:03:32;106.00;;;54.83;;
13083;SDS011;6608;48.790;9.198;2024-01-30T05:05:59;105.23;;;53.73;;
13083;SDS011;6608;48.790;9.198;2024-01-30T05:08:25;106.03;;;54.83;;
13083;SDS011;6608;48.790;9.198;2024-01-30T05:10:52;105.67;;;54.50;;
13083;SDS011;6608;48.790;9.198;2024-01-30T05:13:19;111.40;;;55.07;;
13083;SDS011;6608;48.790;9.198;2024-01-30T05:15:46;106.87;;;54.33;;
13083;SDS011;6608;48.790;9.198;2024-01-30T05:18:12;115.40;;;56.83;;
13083;SDS011;6608;48.790;9.198;2024-01-30T05:20:39;111.03;;;55.07;;
13083;SDS011;6608;48.790;9.198;2024-01-30T05:23:05;114.03;;;55.30;;
13083;SDS011;6608;48.790;9.198;2024-01-30T05:25:31;107.40;;;54.27;;
13083;SDS011;6608;48.790;9.198;2024-01-30T05:27:58;109.33;;;54.93;;
13083;SDS011;6608;48.790;9.198;2024-01-30T05:30:26;104.37;;;53.70;;
13083;SDS011;6608;48.790;9.198;2024-01-30T05:32:52;118.23;;;55.33;;
13083;SDS011;6608;48.790;9.198;2024-01-30T05:35:19;113.33;;;55.67;;
13083;SDS011;6608;48.790;9.198;2024-01-30T05:37:46;107.70;;;54.03;;
13083;SDS011;6608;48.790;9.198;2024-01-30T05:40:13;110.53;;;54.73;;
13083;SDS011;6608;48.790;9.198;2024-01-30T05:42:39;108.60;;;54.63;;
13083;SDS011;6608;48.790;9.198;2024-01-30T05:45:06;109.20;;;55.20;;
13083;SDS011;6608;48.790;9.198;2024-01-30T05:47:34;109.03;;;54.47;;
13083;SDS011;6608;48.790;9.198;2024-01-30T05:50:00;110.57;;;56.73;;
13083;SDS011;6608;48.790;9.198;2024-01-30T05:52:28;113.10;;;55.73;;
13083;SDS011;6608;48.790;9.198;2024-01-30T05:54:54;113.60;;;55.67;;
13083;SDS011;6608;48.790;9.198;2024-01-30T05:57:21;114.87;;;57.30;;
13083;SDS011;6608;48.790;9.198;2024-01-30T05:59:47;118.23;;;59.10;;
13083;SDS011;6608;48.790;9.198;2024-01-30T06:02:13;112.33;;;56.20;;
13083;SDS011;6608;48.790;9.198;2024-01-30T06:04:41;112.27;;;56.40;;
13083;SDS011;6608;48.790;9.198;2024-01-30T06:07:09;151.33;;;80.57;;
13083;SDS011;6608;48.790;9.198;2024-01-30T06:09:35;117.67;;;58.90;;
13083;SDS011;6608;48.790;9.198;2024-01-30T06:12:03;110.37;;;56.00;;
13083;SDS011;6608;48.790;9.198;2024-01-30T06:14:30;113.93;;;57.30;;
13083;SDS011;6608;48.790;9.198;2024-01-30T06:16:57;107.83;;;55.97;;
13083;SDS011;6608;48.790;9.198;2024-01-30T06:19:24;117.90;;;56.87;;
13083;SDS011;6608;48.790;9.198;2024-01-30T06:21:52;110.40;;;55.20;;
13083;SDS011;6608;48.790;9.198;2024-01-30T06:24:18;105.43;;;54.23;;
13083;SDS011;6608;48.790;9.198;2024-01-30T06:26:45;107.87;;;55.00;;
13083;SDS011;6608;48.790;9.198;2024-01-30T06:29:12;112.00;;;56.00;;
13083;SDS011;6608;48.790;9.198;2024-01-30T06:31:40;108.10;;;54.80;;
13083;SDS011;6608;48.790;9.198;2024-01-30T06:34:06;107.30;;;54.93;;
13083;SDS011;6608;48.790;9.198;2024-01-30T06:36:33;114.43;;;56.17;;
13083;SDS011;6608;48.790;9.198;2024-01-30T06:39:00;112.90;;;55.77;;
13083;SDS011;6608;48.790;9.198;2024-01-30T06:41:27;111.77;;;54.87;;
13083;SDS011;6608;48.790;9.198;2024-01-30T06:43:53;109.83;;;55.30;;
13083;SDS011;6608;48.790;9.198;2024-01-30T06:46:20;106.07;;;54.87;;
13083;SDS011;6608;48.790;9.198;2024-01-30T06:48:46;112.47;;;56.40;;
13083;SDS011;6608;48.790;9.198;2024-01-30T06:51:12;112.83;;;56.33;;
13083;SDS011;6608;48.790;9.198;2024-01-30T06:53:39;116.07;;;56.50;;
13083;SDS011;6608;48.790;9.198;2024-01-30T06:56:07;106.93;;;54.53;;
13083;SDS011;6608;48.790;9.198;2024-01-30T06:58:34;114.17;;;56.00;;
13083;SDS011;6608;48.790;9.198;2024-01-30T07:01:00;110.07;;;55.07;;
13083;SDS011;6608;48.790;9.198;2024-01-30T07:03:27;108.73;;;55.10;;
13083;SDS011;6608;48.790;9.198;2024-01-30T07:05:53;108.70;;;55.83;;
13083;SDS011;6608;48.790;9.198;2024-01-30T07:08:20;115.07;;;56.27;;
13083;SDS011;6608;48.790;9.198;2024-01-30T07:10:47;113.00;;;55.73;;
13083;SDS011;6608;48.790;9.198;2024-01-30T07:13:15;109.87;;;55.17;;
13083;SDS011;6608;48.790;9.198;2024-01-30T07:15:41;113.50;;;56.57;;
13083;SDS011;6608;48.790;9.198;2024-01-30T07:18:08;106.17;;;54.60;;
13083;SDS011;6608;48.790;9.198;2024-01-30T07:20:34;112.53;;;56.70;;
13083;SDS011;6608;48.790;9.198;2024-01-30T07:23:01;112.47;;;56.80;;
13083;SDS011;6608;48.790;9.198;2024-01-30T07:25:28;109.63;;;55.67;;
13083;SDS011;6608;48.790;9.198;2024-01-30T07:27:54;110.83;;;55.53;;
13083;SDS011;6608;48.790;9.198;2024-01-30T07:30:22;117.70;;;57.63;;
13083;SDS011;6608;48.790;9.198;2024-01-30T07:32:49;110.47;;;56.23;;
13083;SDS011;6608;48.790;9.198;2024-01-30T07:35:16;112.67;;;56.07;;
13083;SDS011;6608;48.790;9.198;2024-01-30T07:37:42;111.63;;;55.77;;
13083;SDS011;6608;48.790;9.198;2024-01-30T07:42:34;110.53;;;55.50;;
13083;SDS011;6608;48.790;9.198;2024-01-30T07:45:01;107.70;;;55.30;;
13083;SDS011;6608;48.790;9.198;2024-01-30T07:47:27;117.17;;;56.47;;
13083;SDS011;6608;48.790;9.198;2024-01-30T07:49:53;109.17;;;55.27;;
13083;SDS011;6608;48.790;9.198;2024-01-30T07:52:20;111.17;;;56.23;;
13083;SDS011;6608;48.790;9.198;2024-01-30T07:54:49;112.67;;;56.07;;
13083;SDS011;6608;48.790;9.198;2024-01-30T07:57:16;119.37;;;59.27;;
13083;SDS011;6608;48.790;9.198;2024-01-30T07:59:44;111.53;;;56.23;;
13083;SDS011;6608;48.790;9.198;2024-01-30T08:02:11;115.67;;;56.73;;
13083;SDS011;6608;48.790;9.198;2024-01-30T08:04:38;119.60;;;57.90;;
13083;SDS011;6608;48.790;9.198;2024-01-30T08:07:04;114.03;;;56.33;;
13083;SDS011;6608;48.790;9.198;2024-01-30T08:09:31;128.60;;;62.47;;
13083;SDS011;6608;48.790;9.198;2024-01-30T08:11:57;140.57;;;68.00;;
13083;SDS011;6608;48.790;9.198;2024-01-30T08:14:26;116.90;;;56.87;;
13083;SDS011;6608;48.790;9.198;2024-01-30T08:16:55;115.27;;;55.70;;
13083;SDS011;6608;48.790;9.198;2024-01-30T08:19:21;117.43;;;57.40;;
13083;SDS011;6608;48.790;9.198;2024-01-30T08:21:48;121.43;;;59.97;;
13083;SDS011;6608;48.790;9.198;2024-01-30T08:24:14;126.20;;;58.67;;
13083;SDS011;6608;48.790;9.198;2024-01-30T08:26:41;120.93;;;58.93;;
13083;SDS011;6608;48.790;9.198;2024-01-30T08:29:07;122.80;;;59.50;;
13083;SDS011;6608;48.790;9.198;2024-01-30T08:31:33;117.50;;;56.70;;
13083;SDS011;6608;48.790;9.198;2024-01-30T08:34:01;129.43;;;62.73;;
13083;SDS011;6608;48.790;9.198;2024-01-30T08:36:28;115.83;;;56.50;;
13083;SDS011;6608;48.790;9.198;2024-01-30T08:38:54;121.33;;;56.80;;
13083;SDS011;6608;48.790;9.198;2024-01-30T08:41:21;125.43;;;60.13;;
13083;SDS011;6608;48.790;9.198;2024-01-30T08:43:47;122.70;;;58.00;;
13083;SDS011;6608;48.790;9.198;2024-01-30T08:46:17;126.27;;;58.70;;
13083;SDS011;6608;48.790;9.198;2024-01-30T08:48:43;127.27;;;59.57;;
13083;SDS011;6608;48.790;9.198;2024-01-30T08:51:11;122.93;;;58.70;;
13083;SDS011;6608;48.790;9.198;2024-01-30T08:53:37;123.30;;;58.30;;
13083;SDS011;6608;48.790;9.198;2024-01-30T08:56:05;123.73;;;58.80;;
13083;SDS011;6608;48.790;9.198;2024-01-30T08:58:32;120.60;;;57.63;;
13083;SDS011;6608;48.790;9.198;2024-01-30T09:00:58;125.63;;;59.23;;
13083;SDS011;6608;48.790;9.198;2024-01-30T09:03:25;120.90;;;57.63;;
13083;SDS011;6608;48.790;9.198;2024-01-30T09:05:51;122.70;;;57.83;;
13083;SDS011;6608;48.790;9.198;2024-01-30T09:08:19;127.37;;;59.27;;
13083;SDS011;6608;48.790;9.198;2024-01-30T09:10:46;128.03;;;59.50;;
13083;SDS011;6608;48.790;9.198;2024-01-30T09:13:13;126.83;;;58.07;;
13083;SDS011;6608;48.790;9.198;2024-01-30T09:15:39;127.97;;;59.07;;
13083;SDS011;6608;48.790;9.198;2024-01-30T09:18:06;128.03;;;59.40;;
13083;SDS011;6608;48.790;9.198;2024-01-30T09:20:32;130.00;;;59.80;;
13083;SDS011;6608;48.790;9.198;2024-01-30T09:22:59;134.70;;;60.80;;
13083;SDS011;6608;48.790;9.198;2024-01-30T09:25:26;133.07;;;60.33;;
13083;SDS011;6608;48.790;9.198;2024-01-30T09:27:53;139.33;;;60.97;;
13083;SDS011;6608;48.790;9.198;2024-01-30T09:30:20;142.70;;;61.60;;
13083;SDS011;6608;48.790;9.198;2024-01-30T09:32:46;142.67;;;62.50;;
13083;SDS011;6608;48.790;9.198;2024-01-30T09:35:12;141.20;;;62.20;;
13083;SDS011;6608;48.790;9.198;2024-01-30T09:37:39;140.60;;;62.90;;
13083;SDS011;6608;48.790;9.198;2024-01-30T09:40:06;147.83;;;64.43;;
13083;SDS011;6608;48.790;9.198;2024-01-30T09:42:34;148.40;;;64.57;;
13083;SDS011;6608;48.790;9.198;2024-01-30T09:45:01;145.73;;;63.50;;
13083;SDS011;6608;48.790;9.198;2024-01-30T09:47:30;153.57;;;64.83;;
13083;SDS011;6608;48.790;9.198;2024-01-30T09:49:57;158.13;;;65.07;;
13083;SDS011;6608;48.790;9.198;2024-01-30T09:52:24;153.53;;;65.43;;
13083;SDS011;6608;48.790;9.198;2024-01-30T09:54:51;152.87;;;65.27;;
13083;SDS011;6608;48.790;9.198;2024-01-30T09:57:18;152.27;;;65.10;;
13083;SDS011;6608;48.790;9.198;2024-01-30T09:59:46;153.03;;;66.27;;
13083;SDS011;6608;48.790;9.198;2024-01-30T10:02:12;148.37;;;64.50;;
13083;SDS011;6608;48.790;9.198;2024-01-30T10:04:39;153.97;;;67.27;;
13083;SDS011;6608;48.790;9.198;2024-01-30T10:07:05;157.03;;;68.83;;
13083;SDS011;6608;48.790;9.198;2024-01-30T10:09:32;155.47;;;67.43;;
13083;SDS011;6608;48.790;9.198;2024-01-30T10:11:59;160.60;;;66.70;;
13083;SDS011;6608;48.790;9.198;2024-01-30T10:14:28;161.53;;;73.87;;
13083;SDS011;6608;48.790;9.198;2024-01-30T10:16:57;148.93;;;64.40;;
13083;SDS011;6608;48.790;9.198;2024-01-30T10:19:23;146.40;;;64.93;;
13083;SDS011;6608;48.790;9.198;2024-01-30T10:21:50;143.20;;;63.23;;
13083;SDS011;6608;48.790;9.198;2024-01-30T10:24:16;151.57;;;67.03;;
13083;SDS011;6608;48.790;9.198;2024-01-30T10:26:43;143.60;;;63.30;;
13083;SDS011;6608;48.790;9.198;2024-01-30T10:29:09;146.07;;;63.30;;
13083;SDS011;6608;48.790;9.198;2024-01-30T10:31:36;146.20;;;63.33;;
13083;SDS011;6608;48.790;9.198;2024-01-30T10:34:04;142.37;;;62.93;;
13083;SDS011;6608;48.790;9.198;2024-01-30T10:36:30;146.10;;;63.93;;
13083;SDS011;6608;48.790;9.198;2024-01-30T10:38:59;141.80;;;63.30;;
13083;SDS011;6608;48.790;9.198;2024-01-30T10:41:26;146.33;;;64.33;;
13083;SDS011;6608;48.790;9.198;2024-01-30T10:43:54;142.83;;;63.77;;
13083;SDS011;6608;48.790;9.198;2024-01-30T10:46:24;147.50;;;63.93;;
13083;SDS011;6608;48.790;9.198;2024-01-30T10:48:56;143.67;;;64.23;;
13083;SDS011;6608;48.790;9.198;2024-01-30T10:51:25;148.43;;;65.07;;
13083;SDS011;6608;48.790;9.198;2024-01-30T10:53:52;148.83;;;65.33;;
13083;SDS011;6608;48.790;9.198;2024-01-30T10:56:19;146.60;;;64.17;;
13083;SDS011;6608;48.790;9.198;2024-01-30T10:58:46;146.53;;;65.10;;
13083;SDS011;6608;48.790;9.198;2024-01-30T11:01:13;157.57;;;68.33;;
13083;SDS011;6608;48.790;9.198;2024-01-30T11:03:40;145.67;;;64.37;;
13083;SDS011;6608;48.790;9.198;2024-01-30T11:06:10;147.90;;;64.07;;
13083;SDS011;6608;48.790;9.198;2024-01-30T11:08:38;144.40;;;63.47;;
13083;SDS011;6608;48.790;9.198;2024-01-30T11:11:04;148.60;;;64.83;;
13083;SDS011;6608;48.790;9.198;2024-01-30T11:13:34;148.13;;;65.67;;
13083;SDS011;6608;48.790;9.198;2024-01-30T11:16:01;153.27;;;66.30;;
13083;SDS011;6608;48.790;9.198;2024-01-30T11:18:28;149.37;;;65.17;;
13083;SDS011;6608;48.790;9.198;2024-01-30T11:20:55;143.03;;;64.20;;
13083;SDS011;6608;48.790;9.198;2024-01-30T11:23:22;153.93;;;66.77;;
13083;SDS011;6608;48.790;9.198;2024-01-30T11:25:50;152.60;;;66.17;;
13083;SDS011;6608;48.790;9.198;2024-01-30T11:28:18;149.27;;;65.40;;
13083;SDS011;6608;48.790;9.198;2024-01-30T11:30:44;150.10;;;65.33;;
13083;SDS011;6608;48.790;9.198;2024-01-30T11:33:15;147.73;;;64.33;;
13083;SDS011;6608;48.790;9.198;2024-01-30T11:35:53;147.60;;;66.57;;
13083;SDS011;6608;48.790;9.198;2024-01-30T11:38:19;150.77;;;65.47;;
13083;SDS011;6608;48.790;9.198;2024-01-30T11:40:46;144.70;;;64.63;;
13083;SDS011;6608;48.790;9.198;2024-01-30T11:43:15;155.77;;;71.93;;
13083;SDS011;6608;48.790;9.198;2024-01-30T11:45:43;166.57;;;77.77;;
13083;SDS011;6608;48.790;9.198;2024-01-30T11:48:11;146.83;;;64.77;;
13083;SDS011;6608;48.790;9.198;2024-01-30T11:50:38;145.57;;;63.63;;
13083;SDS011;6608;48.790;9.198;2024-01-30T11:53:04;143.93;;;64.93;;
13083;SDS011;6608;48.790;9.198;2024-01-30T11:55:31;147.70;;;65.03;;
13083;SDS011;6608;48.790;9.198;2024-01-30T11:57:58;148.70;;;64.83;;
13083;SDS011;6608;48.790;9.198;2024-01-30T12:00:26;159.10;;;69.20;;
13083;SDS011;6608;48.790;9.198;2024-01-30T12:02:53;151.63;;;65.97;;
13083;SDS011;6608;48.790;9.198;2024-01-30T12:05:21;159.73;;;68.33;;
13083;SDS011;6608;48.790;9.198;2024-01-30T12:07:47;148.60;;;66.77;;
13083;SDS011;6608;48.790;9.198;2024-01-30T12:10:14;153.50;;;68.07;;
13083;SDS011;6608;48.790;9.198;2024-01-30T12:12:41;147.77;;;64.83;;
13083;SDS011;6608;48.790;9.198;2024-01-30T12:15:08;150.43;;;66.73;;
13083;SDS011;6608;48.790;9.198;2024-01-30T12:17:37;142.63;;;64.17;;
13083;SDS011;6608;48.790;9.198;2024-01-30T12:20:04;148.70;;;65.27;;
13083;SDS011;6608;48.790;9.198;2024-01-30T12:22:31;143.47;;;64.33;;
13083;SDS011;6608;48.790;9.198;2024-01-30T12:24:58;142.00;;;63.73;;
13083;SDS011;6608;48.790;9.198;2024-01-30T12:27:24;153.37;;;69.27;;
13083;SDS011;6608;48.790;9.198;2024-01-30T12:29:55;147.33;;;64.80;;
13083;SDS011;6608;48.790;9.198;2024-01-30T12:32:22;148.03;;;64.80;;
13083;SDS011;6608;48.790;9.198;2024-01-30T12:34:50;146.23;;;62.73;;
13083;SDS011;6608;48.790;9.198;2024-01-30T12:37:16;145.67;;;63.07;;
13083;SDS011;6608;48.790;9.198;2024-01-30T12:39:46;145.63;;;63.80;;
13083;SDS011;6608;48.790;9.198;2024-01-30T12:42:13;149.73;;;63.70;;
13083;SDS011;6608;48.790;9.198;2024-01-30T12:44:40;153.37;;;66.27;;
13083;SDS011;6608;48.790;9.198;2024-01-30T12:47:08;145.40;;;62.70;;
13083;SDS011;6608;48.790;9.198;2024-01-30T12:49:34;150.57;;;65.10;;
13083;SDS011;6608;48.790;9.198;2024-01-30T12:52:02;201.67;;;94.40;;
13083;SDS011;6608;48.790;9.198;2024-01-30T12:54:29;154.03;;;68.20;;
13083;SDS011;6608;48.790;9.198;2024-01-30T12:56:55;147.40;;;65.00;;
13083;SDS011;6608;48.790;9.198;2024-01-30T12:59:22;153.53;;;66.53;;
13083;SDS011;6608;48.790;9.198;2024-01-30T13:01:48;160.30;;;71.93;;
13083;SDS011;6608;48.790;9.198;2024-01-30T13:04:15;159.20;;;71.13;;
13083;SDS011;6608;48.790;9.198;2024-01-30T13:06:41;157.33;;;69.70;;
13083;SDS011;6608;48.790;9.198;2024-01-30T13:09:09;165.60;;;73.07;;
13083;SDS011;6608;48.790;9.198;2024-01-30T13:11:36;151.10;;;66.97;;
13083;SDS011;6608;48.790;9.198;2024-01-30T13:14:02;184.27;;;87.23;;
13083;SDS011;6608;48.790;9.198;2024-01-30T13:16:29;155.63;;;68.60;;
13083;SDS011;6608;48.790;9.198;2024-01-30T13:18:55;163.27;;;68.40;;
13083;SDS011;6608;48.790;9.198;2024-01-30T13:21:22;155.73;;;70.23;;
13083;SDS011;6608;48.790;9.198;2024-01-30T13:23:48;169.60;;;75.90;;
13083;SDS011;6608;48.790;9.198;2024-01-30T13:26:19;163.47;;;72.30;;
13083;SDS011;6608;48.790;9.198;2024-01-30T13:28:46;161.77;;;71.03;;
13083;SDS011;6608;48.790;9.198;2024-01-30T13:31:12;164.97;;;72.13;;
13083;SDS011;6608;48.790;9.198;2024-01-30T13:33:39;164.93;;;71.07;;
13083;SDS011;6608;48.790;9.198;2024-01-30T13:36:06;167.07;;;70.97;;
13083;SDS011;6608;48.790;9.198;2024-01-30T13:38:32;168.57;;;71.47;;
13083;SDS011;6608;48.790;9.198;2024-01-30T13:40:59;172.30;;;71.37;;
13083;SDS011;6608;48.790;9.198;2024-01-30T13:43:27;170.87;;;71.33;;
13083;SDS011;6608;48.790;9.198;2024-01-30T13:45:53;160.60;;;70.03;;
13083;SDS011;6608;48.790;9.198;2024-01-30T13:48:20;166.80;;;69.97;;
13083;SDS011;6608;48.790;9.198;2024-01-30T13:50:46;158.83;;;68.90;;
13083;SDS011;6608;48.790;9.198;2024-01-30T13:53:13;161.60;;;69.83;;
13083;SDS011;6608;48.790;9.198;2024-01-30T13:55:40;161.07;;;69.83;;
13083;SDS011;6608;48.790;9.198;2024-01-30T13:58:06;154.93;;;69.13;;
13083;SDS011;6608;48.790;9.198;2024-01-30T14:00:34;159.43;;;69.10;;
13083;SDS011;6608;48.790;9.198;2024-01-30T14:03:01;155.90;;;68.37;;
13083;SDS011;6608;48.790;9.198;2024-01-30T14:05:28;155.83;;;67.23;;
13083;SDS011;6608;48.790;9.198;2024-01-30T14:07:54;160.53;;;69.37;;
13083;SDS011;6608;48.790;9.198;2024-01-30T14:10:21;156.70;;;67.83;;
13083;SDS011;6608;48.790;9.198;2024-01-30T14:12:48;160.80;;;69.37;;
13083;SDS011;6608;48.790;9.198;2024-01-30T14:15:14;161.37;;;70.30;;
13083;SDS011;6608;48.790;9.198;2024-01-30T14:17:44;162.17;;;69.57;;
13083;SDS011;6608;48.790;9.198;2024-01-30T14:20:13;154.47;;;68.20;;
13083;SDS011;6608;48.790;9.198;2024-01-30T14:22:41;156.30;;;68.13;;